ARG1719 SAAR-SABE
Flight info
| Callsign | ARG1719 |
|---|---|
| Flight time | N/A |
| Altitude | 21000 |
| Route | DCT VASAL W20 MULTA W24 SNT SNT8Q |
| Aircraft | B738/M-SDE2E3FGHIRWXY/LB1 |
Departure
| Time | 2026-04-21 00:52 |
|---|---|
| Airport | Rosario Islas Malvinas International Airport (SAAR) |
Arrival
| Time | N/A |
|---|---|
| Airport | Aeroparque Jorge Newbery (SABE) |
| Time | Latitude | Longitude | Altitude | Speed | Heading |
|---|---|---|---|---|---|
| 2026-04-21 00:21 | -32.91654 | -60.78164 | 94 ft | 0 kts | 111° |
| 2026-04-21 00:41 | -32.91648 | -60.78182 | 94 ft | 4 kts | 111° |
| 2026-04-21 00:41 | -32.91638 | -60.78211 | 93 ft | 4 kts | 119° |
| 2026-04-21 00:42 | -32.91623 | -60.78235 | 96 ft | 4 kts | 155° |
| 2026-04-21 00:42 | -32.91610 | -60.78238 | 95 ft | 0 kts | 201° |
| 2026-04-21 00:44 | -32.91614 | -60.78240 | 95 ft | 2 kts | 201° |
| 2026-04-21 00:44 | -32.91625 | -60.78245 | 95 ft | 2 kts | 201° |
| 2026-04-21 00:45 | -32.91647 | -60.78255 | 96 ft | 2 kts | 201° |
| 2026-04-21 00:45 | -32.91656 | -60.78260 | 96 ft | 1 kts | 201° |
| 2026-04-21 00:45 | -32.91666 | -60.78264 | 96 ft | 1 kts | 201° |
| 2026-04-21 00:45 | -32.91674 | -60.78268 | 96 ft | 1 kts | 201° |
| 2026-04-21 00:46 | -32.91682 | -60.78272 | 98 ft | 1 kts | 201° |
| 2026-04-21 00:46 | -32.91690 | -60.78275 | 96 ft | 1 kts | 201° |
| 2026-04-21 00:46 | -32.91708 | -60.78284 | 96 ft | 5 kts | 201° |
| 2026-04-21 00:46 | -32.91742 | -60.78306 | 96 ft | 6 kts | 228° |
| 2026-04-21 00:47 | -32.91755 | -60.78354 | 94 ft | 6 kts | 256° |
| 2026-04-21 00:47 | -32.91765 | -60.78402 | 96 ft | 6 kts | 257° |
| 2026-04-21 00:47 | -32.91774 | -60.78449 | 96 ft | 6 kts | 257° |
| 2026-04-21 00:47 | -32.91783 | -60.78495 | 95 ft | 6 kts | 257° |
| 2026-04-21 00:48 | -32.91791 | -60.78541 | 96 ft | 6 kts | 257° |
| 2026-04-21 00:48 | -32.91788 | -60.78586 | 97 ft | 6 kts | 298° |
| 2026-04-21 00:48 | -32.91766 | -60.78619 | 95 ft | 1 kts | 312° |
| 2026-04-21 00:48 | -32.91765 | -60.78620 | 95 ft | 0 kts | 312° |
| 2026-04-21 00:50 | -32.91763 | -60.78622 | 95 ft | 2 kts | 312° |
| 2026-04-21 00:51 | -32.91741 | -60.78652 | 94 ft | 8 kts | 312° |
| 2026-04-21 00:51 | -32.91687 | -60.78713 | 97 ft | 12 kts | 319° |
| 2026-04-21 00:51 | -32.91615 | -60.78752 | 96 ft | 12 kts | 6° |
| 2026-04-21 00:51 | -32.91515 | -60.78730 | 97 ft | 19 kts | 11° |
| 2026-04-21 00:52 | -32.91300 | -60.78682 | 99 ft | 59 kts | 11° |
| 2026-04-21 00:52 | -32.90649 | -60.78534 | 96 ft | 129 kts | 11° |
| 2026-04-21 00:52 | -32.89588 | -60.78305 | 260 ft | 168 kts | 11° |
| 2026-04-21 00:52 | -32.88460 | -60.78051 | 1045 ft | 163 kts | 13° |
| 2026-04-21 00:53 | -32.87371 | -60.77787 | 1878 ft | 159 kts | 13° |
| 2026-04-21 00:53 | -32.86236 | -60.77525 | 2386 ft | 179 kts | 12° |
| 2026-04-21 00:53 | -32.84915 | -60.77213 | 2735 ft | 205 kts | 17° |
| 2026-04-21 00:53 | -32.83663 | -60.76269 | 2954 ft | 224 kts | 55° |
| 2026-04-21 00:54 | -32.83234 | -60.74538 | 3506 ft | 230 kts | 95° |
| 2026-04-21 00:54 | -32.83844 | -60.72746 | 3981 ft | 246 kts | 130° |
| 2026-04-21 00:54 | -32.85215 | -60.71439 | 4526 ft | 263 kts | 152° |
| 2026-04-21 00:54 | -32.86930 | -60.70620 | 5208 ft | 272 kts | 160° |
| 2026-04-21 00:55 | -32.88715 | -60.69830 | 6004 ft | 275 kts | 159° |
| 2026-04-21 00:55 | -32.90510 | -60.69004 | 6763 ft | 281 kts | 159° |
| 2026-04-21 00:55 | -32.92352 | -60.68133 | 7434 ft | 286 kts | 159° |
| 2026-04-21 00:55 | -32.94205 | -60.67247 | 8262 ft | 288 kts | 159° |
| 2026-04-21 00:56 | -32.96077 | -60.66349 | 9016 ft | 292 kts | 159° |
| 2026-04-21 00:56 | -32.97975 | -60.65438 | 9751 ft | 297 kts | 160° |
| 2026-04-21 00:56 | -32.99910 | -60.64509 | 10350 ft | 306 kts | 160° |
| 2026-04-21 00:56 | -33.01967 | -60.63523 | 10521 ft | 330 kts | 160° |
| 2026-04-21 00:57 | -33.04130 | -60.62484 | 10789 ft | 348 kts | 160° |
| 2026-04-21 00:57 | -33.06403 | -60.61390 | 11352 ft | 355 kts | 160° |
| 2026-04-21 00:57 | -33.08705 | -60.60279 | 12040 ft | 359 kts | 160° |
| 2026-04-21 00:57 | -33.11033 | -60.59156 | 12722 ft | 363 kts | 160° |
| 2026-04-21 00:58 | -33.13390 | -60.58018 | 13397 ft | 368 kts | 160° |
| 2026-04-21 00:58 | -33.15779 | -60.56865 | 14056 ft | 373 kts | 160° |
| 2026-04-21 00:58 | -33.18201 | -60.55695 | 14679 ft | 377 kts | 160° |
| 2026-04-21 00:58 | -33.20650 | -60.54511 | 15346 ft | 381 kts | 160° |
| 2026-04-21 00:59 | -33.23122 | -60.53316 | 16005 ft | 385 kts | 160° |
| 2026-04-21 00:59 | -33.25625 | -60.52105 | 16658 ft | 390 kts | 160° |
| 2026-04-21 00:59 | -33.28154 | -60.50881 | 17299 ft | 394 kts | 161° |
| 2026-04-21 00:59 | -33.30675 | -60.49660 | 17927 ft | 399 kts | 161° |
| 2026-04-21 01:00 | -33.33256 | -60.48405 | 18518 ft | 403 kts | 160° |
| 2026-04-21 01:00 | -33.35794 | -60.46904 | 19061 ft | 410 kts | 154° |
| 2026-04-21 01:00 | -33.38267 | -60.45202 | 19725 ft | 410 kts | 152° |
| 2026-04-21 01:00 | -33.40711 | -60.43455 | 20455 ft | 410 kts | 152° |
| 2026-04-21 01:01 | -33.43168 | -60.41690 | 20867 ft | 411 kts | 152° |
| 2026-04-21 01:01 | -33.45624 | -60.39937 | 21015 ft | 411 kts | 153° |
| 2026-04-21 01:01 | -33.48083 | -60.38196 | 21017 ft | 411 kts | 153° |
| 2026-04-21 01:01 | -33.50514 | -60.36486 | 21023 ft | 410 kts | 153° |
| 2026-04-21 01:02 | -33.52975 | -60.34761 | 21021 ft | 410 kts | 153° |
| 2026-04-21 01:02 | -33.55435 | -60.33039 | 21024 ft | 410 kts | 153° |
| 2026-04-21 01:02 | -33.57902 | -60.31314 | 21028 ft | 410 kts | 153° |
| 2026-04-21 01:02 | -33.60368 | -60.29587 | 21029 ft | 410 kts | 153° |
| 2026-04-21 01:03 | -33.62830 | -60.27862 | 21030 ft | 411 kts | 153° |
| 2026-04-21 01:03 | -33.65296 | -60.26133 | 21028 ft | 411 kts | 153° |
| 2026-04-21 01:03 | -33.67766 | -60.24399 | 21025 ft | 410 kts | 153° |
| 2026-04-21 01:03 | -33.70230 | -60.22668 | 21025 ft | 410 kts | 153° |
| 2026-04-21 01:04 | -33.72689 | -60.20940 | 21024 ft | 410 kts | 153° |
| 2026-04-21 01:04 | -33.75116 | -60.19232 | 21022 ft | 410 kts | 153° |
| 2026-04-21 01:04 | -33.77572 | -60.17504 | 21026 ft | 409 kts | 153° |
| 2026-04-21 01:04 | -33.80027 | -60.15775 | 21027 ft | 409 kts | 153° |
| 2026-04-21 01:05 | -33.82433 | -60.13940 | 21020 ft | 411 kts | 145° |
| 2026-04-21 01:05 | -33.84574 | -60.11660 | 21037 ft | 412 kts | 135° |
| 2026-04-21 01:05 | -33.86356 | -60.09007 | 21019 ft | 402 kts | 126° |
| 2026-04-21 01:05 | -33.87905 | -60.06253 | 21029 ft | 395 kts | 124° |
| 2026-04-21 01:06 | -33.89391 | -60.03535 | 21030 ft | 393 kts | 124° |
| 2026-04-21 01:06 | -33.90890 | -60.00782 | 21039 ft | 394 kts | 124° |
| 2026-04-21 01:06 | -33.92403 | -59.98018 | 20771 ft | 396 kts | 124° |
| 2026-04-21 01:06 | -33.93917 | -59.95271 | 20480 ft | 392 kts | 124° |
| 2026-04-21 01:07 | -33.95429 | -59.92542 | 20103 ft | 390 kts | 124° |
| 2026-04-21 01:07 | -33.96932 | -59.89835 | 19735 ft | 387 kts | 124° |
| 2026-04-21 01:07 | -33.98424 | -59.87152 | 19365 ft | 384 kts | 124° |
| 2026-04-21 01:07 | -33.99908 | -59.84486 | 18985 ft | 382 kts | 124° |
| 2026-04-21 01:08 | -34.01363 | -59.81869 | 18617 ft | 380 kts | 124° |
| 2026-04-21 01:08 | -34.02830 | -59.79231 | 18239 ft | 378 kts | 124° |
| 2026-04-21 01:08 | -34.04290 | -59.76608 | 17805 ft | 375 kts | 124° |
| 2026-04-21 01:08 | -34.05737 | -59.74004 | 17400 ft | 373 kts | 124° |
| 2026-04-21 01:09 | -34.07174 | -59.71414 | 17017 ft | 370 kts | 124° |
| 2026-04-21 01:09 | -34.08542 | -59.68807 | 16631 ft | 367 kts | 120° |
| 2026-04-21 01:09 | -34.09737 | -59.66101 | 16267 ft | 364 kts | 115° |
| 2026-04-21 01:09 | -34.10645 | -59.63275 | 15850 ft | 362 kts | 109° |
| 2026-04-21 01:10 | -34.11424 | -59.60369 | 15364 ft | 363 kts | 107° |
| 2026-04-21 01:10 | -34.12157 | -59.57471 | 14981 ft | 361 kts | 107° |
| 2026-04-21 01:10 | -34.12876 | -59.54576 | 14597 ft | 358 kts | 107° |
| 2026-04-21 01:10 | -34.13591 | -59.51702 | 14231 ft | 356 kts | 107° |
| 2026-04-21 01:11 | -34.14287 | -59.48915 | 13857 ft | 347 kts | 107° |
| 2026-04-21 01:11 | -34.14877 | -59.46141 | 13443 ft | 340 kts | 95° |
| 2026-04-21 01:11 | -34.14799 | -59.43316 | 13100 ft | 335 kts | 82° |
| 2026-04-21 01:11 | -34.14471 | -59.40539 | 12756 ft | 333 kts | 80° |
| 2026-04-21 01:12 | -34.14110 | -59.37804 | 12451 ft | 329 kts | 80° |
| 2026-04-21 01:12 | -34.13745 | -59.35091 | 12145 ft | 325 kts | 79° |
| 2026-04-21 01:12 | -34.13379 | -59.32411 | 11850 ft | 322 kts | 79° |
| 2026-04-21 01:12 | -34.13015 | -59.29760 | 11559 ft | 319 kts | 79° |
| 2026-04-21 01:13 | -34.12651 | -59.27135 | 11273 ft | 315 kts | 79° |
| 2026-04-21 01:13 | -34.12294 | -59.24570 | 11007 ft | 312 kts | 79° |
| 2026-04-21 01:13 | -34.11935 | -59.22009 | 10736 ft | 309 kts | 79° |
| 2026-04-21 01:13 | -34.11578 | -59.19467 | 10475 ft | 305 kts | 79° |
| 2026-04-21 01:14 | -34.11226 | -59.16970 | 10360 ft | 297 kts | 79° |
| 2026-04-21 01:14 | -34.10882 | -59.14526 | 10247 ft | 294 kts | 79° |
| 2026-04-21 01:14 | -34.10540 | -59.12100 | 10140 ft | 296 kts | 79° |
| 2026-04-21 01:14 | -34.10196 | -59.09644 | 10071 ft | 298 kts | 82° |
| 2026-04-21 01:15 | -34.10262 | -59.07141 | 10046 ft | 298 kts | 99° |
| 2026-04-21 01:15 | -34.10606 | -59.04729 | 10035 ft | 293 kts | 100° |
| 2026-04-21 01:15 | -34.10969 | -59.02312 | 9574 ft | 299 kts | 101° |
| 2026-04-21 01:15 | -34.11393 | -58.99858 | 9235 ft | 299 kts | 102° |
| 2026-04-21 01:16 | -34.11846 | -58.97416 | 8935 ft | 296 kts | 105° |
| 2026-04-21 01:16 | -34.12505 | -58.95079 | 8690 ft | 292 kts | 110° |
| 2026-04-21 01:16 | -34.13223 | -58.92801 | 8443 ft | 289 kts | 111° |
| 2026-04-21 01:16 | -34.13945 | -58.90549 | 8221 ft | 285 kts | 111° |
| 2026-04-21 01:17 | -34.14672 | -58.88338 | 7984 ft | 282 kts | 114° |
| 2026-04-21 01:17 | -34.15518 | -58.86220 | 7768 ft | 279 kts | 116° |
| 2026-04-21 01:17 | -34.16405 | -58.84189 | 7550 ft | 276 kts | 122° |
| 2026-04-21 01:17 | -34.17653 | -58.82462 | 7355 ft | 272 kts | 137° |
| 2026-04-21 01:18 | -34.19059 | -58.80927 | 7107 ft | 272 kts | 139° |
| 2026-04-21 01:18 | -34.20480 | -58.79423 | 6870 ft | 271 kts | 139° |
| 2026-04-21 01:18 | -34.21899 | -58.77934 | 6631 ft | 270 kts | 139° |
| 2026-04-21 01:18 | -34.23317 | -58.76457 | 6414 ft | 268 kts | 139° |
| 2026-04-21 01:19 | -34.24621 | -58.75109 | 6219 ft | 266 kts | 139° |
| 2026-04-21 01:19 | -34.26025 | -58.73668 | 6007 ft | 264 kts | 139° |
| 2026-04-21 01:19 | -34.27533 | -58.72407 | 5538 ft | 269 kts | 148° |
| 2026-04-21 01:19 | -34.29169 | -58.71281 | 5222 ft | 271 kts | 149° |
| 2026-04-21 01:20 | -34.30815 | -58.70172 | 4949 ft | 272 kts | 149° |
| 2026-04-21 01:20 | -34.32463 | -58.69043 | 4657 ft | 273 kts | 148° |
| 2026-04-21 01:20 | -34.34108 | -58.67896 | 4351 ft | 271 kts | 148° |
| 2026-04-21 01:20 | -34.35711 | -58.66767 | 4065 ft | 263 kts | 147° |
| 2026-04-21 01:21 | -34.37268 | -58.65663 | 3807 ft | 255 kts | 146° |
| 2026-04-21 01:21 | -34.38752 | -58.64604 | 3601 ft | 241 kts | 146° |
| 2026-04-21 01:21 | -34.40151 | -58.63605 | 3420 ft | 225 kts | 146° |
| 2026-04-21 01:21 | -34.41428 | -58.62690 | 3314 ft | 207 kts | 146° |
| 2026-04-21 01:22 | -34.42625 | -58.61832 | 3227 ft | 194 kts | 145° |
| 2026-04-21 01:22 | -34.43755 | -58.61019 | 3112 ft | 184 kts | 144° |
| 2026-04-21 01:22 | -34.44836 | -58.60243 | 3025 ft | 180 kts | 144° |
| 2026-04-21 01:22 | -34.45801 | -58.59321 | 2997 ft | 173 kts | 123° |
| 2026-04-21 01:23 | -34.46560 | -58.58183 | 3002 ft | 175 kts | 123° |
| 2026-04-21 01:23 | -34.47307 | -58.56989 | 2859 ft | 181 kts | 120° |
| 2026-04-21 01:23 | -34.48027 | -58.55734 | 2601 ft | 181 kts | 119° |
| 2026-04-21 01:23 | -34.48723 | -58.54493 | 2376 ft | 174 kts | 119° |
| 2026-04-21 01:24 | -34.49378 | -58.53319 | 2168 ft | 163 kts | 118° |
| 2026-04-21 01:24 | -34.49991 | -58.52220 | 1957 ft | 153 kts | 118° |
| 2026-04-21 01:24 | -34.50568 | -58.51183 | 1745 ft | 144 kts | 117° |
| 2026-04-21 01:24 | -34.51115 | -58.50202 | 1555 ft | 138 kts | 117° |
| 2026-04-21 01:25 | -34.51659 | -58.49222 | 1387 ft | 141 kts | 119° |
| 2026-04-21 01:25 | -34.52208 | -58.48234 | 1189 ft | 140 kts | 120° |
| 2026-04-21 01:25 | -34.52742 | -58.47282 | 1014 ft | 134 kts | 118° |
| 2026-04-21 01:25 | -34.53264 | -58.46345 | 828 ft | 133 kts | 118° |
| 2026-04-21 01:26 | -34.53780 | -58.45432 | 674 ft | 130 kts | 121° |
| 2026-04-21 01:26 | -34.54275 | -58.44514 | 467 ft | 132 kts | 121° |
| 2026-04-21 01:26 | -34.54807 | -58.43598 | 300 ft | 132 kts | 122° |
| 2026-04-21 01:26 | -34.55299 | -58.42707 | 82 ft | 126 kts | 122° |
| 2026-04-21 01:27 | -34.55794 | -58.41814 | 171 ft | 138 kts | 122° |
| 2026-04-21 01:27 | -34.56304 | -58.40916 | 1341 ft | 127 kts | 117° |
| 2026-04-21 01:27 | -34.56871 | -58.39943 | 1894 ft | 161 kts | 116° |
| 2026-04-21 01:27 | -34.57569 | -58.38612 | 2158 ft | 208 kts | 117° |
| 2026-04-21 01:28 | -34.58403 | -58.37209 | 3110 ft | 197 kts | 120° |
| 2026-04-21 01:28 | -34.58896 | -58.35527 | 2444 ft | 229 kts | 83° |
| 2026-04-21 01:28 | -34.58730 | -58.33596 | 2708 ft | 239 kts | 83° |
| 2026-04-21 01:28 | -34.58654 | -58.31534 | 2817 ft | 247 kts | 86° |
| 2026-04-21 01:29 | -34.58662 | -58.29459 | 2900 ft | 245 kts | 88° |
| 2026-04-21 01:29 | -34.58725 | -58.27421 | 2933 ft | 235 kts | 89° |
| 2026-04-21 01:29 | -34.58821 | -58.25512 | 2952 ft | 219 kts | 91° |
| 2026-04-21 01:29 | -34.58923 | -58.23850 | 2981 ft | 207 kts | 91° |
| 2026-04-21 01:30 | -34.59037 | -58.22105 | 2993 ft | 208 kts | 90° |
| 2026-04-21 01:30 | -34.59153 | -58.20343 | 3005 ft | 211 kts | 90° |
| 2026-04-21 01:30 | -34.59274 | -58.18557 | 3005 ft | 212 kts | 90° |
| 2026-04-21 01:30 | -34.59440 | -58.16808 | 2994 ft | 213 kts | 101° |
| 2026-04-21 01:31 | -34.60166 | -58.15233 | 2998 ft | 219 kts | 126° |
| 2026-04-21 01:31 | -34.61422 | -58.14166 | 2984 ft | 227 kts | 154° |
| 2026-04-21 01:31 | -34.63005 | -58.13914 | 3004 ft | 235 kts | 183° |
| 2026-04-21 01:31 | -34.64524 | -58.14642 | 3067 ft | 240 kts | 217° |
| 2026-04-21 01:32 | -34.65527 | -58.16239 | 3526 ft | 241 kts | 251° |
| 2026-04-21 01:32 | -34.65804 | -58.18205 | 4459 ft | 231 kts | 277° |
| 2026-04-21 01:32 | -34.65703 | -58.20120 | 5525 ft | 227 kts | 278° |
| 2026-04-21 01:32 | -34.65566 | -58.22042 | 6389 ft | 230 kts | 284° |
| 2026-04-21 01:33 | -34.64872 | -58.23855 | 6779 ft | 251 kts | 308° |
| 2026-04-21 01:33 | -34.63776 | -58.25585 | 7299 ft | 267 kts | 309° |
| 2026-04-21 01:33 | -34.62612 | -58.27384 | 7615 ft | 270 kts | 309° |
| 2026-04-21 01:33 | -34.61458 | -58.29185 | 7845 ft | 264 kts | 309° |
| 2026-04-21 01:34 | -34.60320 | -58.30980 | 8060 ft | 269 kts | 308° |
| 2026-04-21 01:34 | -34.59185 | -58.32792 | 8064 ft | 270 kts | 308° |
| 2026-04-21 01:34 | -34.58060 | -58.34604 | 8068 ft | 268 kts | 308° |
| 2026-04-21 01:34 | -34.56936 | -58.36421 | 8081 ft | 272 kts | 308° |
| 2026-04-21 01:35 | -34.55801 | -58.38263 | 8078 ft | 273 kts | 308° |
| 2026-04-21 01:35 | -34.54662 | -58.40116 | 8077 ft | 275 kts | 308° |
| 2026-04-21 01:35 | -34.53522 | -58.41972 | 8083 ft | 273 kts | 307° |
| 2026-04-21 01:35 | -34.52700 | -58.43987 | 8068 ft | 273 kts | 281° |
| 2026-04-21 01:36 | -34.52844 | -58.46271 | 8089 ft | 275 kts | 255° |
| 2026-04-21 01:36 | -34.53698 | -58.48371 | 8082 ft | 282 kts | 240° |
| 2026-04-21 01:36 | -34.54777 | -58.50379 | 8079 ft | 286 kts | 238° |
| 2026-04-21 01:36 | -34.55881 | -58.52382 | 8079 ft | 284 kts | 239° |
| 2026-04-21 01:37 | -34.56969 | -58.54353 | 8047 ft | 279 kts | 239° |
| 2026-04-21 01:37 | -34.58038 | -58.56303 | 8032 ft | 275 kts | 238° |
| 2026-04-21 01:37 | -34.59088 | -58.58229 | 8038 ft | 272 kts | 239° |
| 2026-04-21 01:37 | -34.60129 | -58.60146 | 8046 ft | 272 kts | 239° |
| 2026-04-21 01:38 | -34.61169 | -58.62068 | 7881 ft | 275 kts | 239° |
| 2026-04-21 01:38 | -34.62221 | -58.64014 | 7696 ft | 275 kts | 238° |
| 2026-04-21 01:38 | -34.63247 | -58.65918 | 7442 ft | 272 kts | 239° |
| 2026-04-21 01:38 | -34.64278 | -58.67833 | 7205 ft | 270 kts | 238° |
| 2026-04-21 01:39 | -34.65302 | -58.69738 | 6941 ft | 269 kts | 239° |
| 2026-04-21 01:39 | -34.66326 | -58.71643 | 6652 ft | 270 kts | 238° |
| 2026-04-21 01:39 | -34.67354 | -58.73557 | 6358 ft | 270 kts | 238° |
| 2026-04-21 01:39 | -34.68367 | -58.75444 | 6060 ft | 271 kts | 238° |
| 2026-04-21 01:40 | -34.69412 | -58.77391 | 5782 ft | 271 kts | 238° |
| 2026-04-21 01:40 | -34.70443 | -58.79313 | 5498 ft | 271 kts | 238° |
| 2026-04-21 01:40 | -34.71447 | -58.81186 | 5363 ft | 265 kts | 238° |
| 2026-04-21 01:40 | -34.72695 | -58.82756 | 5233 ft | 257 kts | 208° |
| 2026-04-21 01:41 | -34.74370 | -58.83184 | 5053 ft | 245 kts | 173° |
| 2026-04-21 01:41 | -34.75898 | -58.82373 | 4592 ft | 235 kts | 131° |
| 2026-04-21 01:41 | -34.76792 | -58.80811 | 4308 ft | 218 kts | 115° |
| 2026-04-21 01:41 | -34.77397 | -58.79193 | 4044 ft | 204 kts | 105° |
| 2026-04-21 01:42 | -34.77858 | -58.77609 | 3792 ft | 192 kts | 103° |
| 2026-04-21 01:42 | -34.78195 | -58.76087 | 3551 ft | 182 kts | 98° |
| 2026-04-21 01:42 | -34.78470 | -58.74608 | 3243 ft | 176 kts | 97° |
| 2026-04-21 01:42 | -34.78720 | -58.73209 | 3015 ft | 168 kts | 97° |
| 2026-04-21 01:43 | -34.78960 | -58.71857 | 2793 ft | 159 kts | 97° |
| 2026-04-21 01:43 | -34.79188 | -58.70575 | 2588 ft | 152 kts | 97° |
| 2026-04-21 01:43 | -34.79408 | -58.69336 | 2389 ft | 149 kts | 97° |
| 2026-04-21 01:43 | -34.79628 | -58.68096 | 2203 ft | 151 kts | 98° |
| 2026-04-21 01:44 | -34.79848 | -58.66859 | 2014 ft | 149 kts | 98° |
| 2026-04-21 01:44 | -34.80062 | -58.65675 | 1821 ft | 140 kts | 97° |
| 2026-04-21 01:44 | -34.80247 | -58.64589 | 1633 ft | 124 kts | 101° |
| 2026-04-21 01:44 | -34.80430 | -58.63588 | 1479 ft | 121 kts | 101° |
| 2026-04-21 01:45 | -34.80608 | -58.62601 | 1318 ft | 119 kts | 100° |
| 2026-04-21 01:45 | -34.80789 | -58.61593 | 1167 ft | 126 kts | 100° |
| 2026-04-21 01:45 | -34.80976 | -58.60532 | 969 ft | 129 kts | 102° |
| 2026-04-21 01:45 | -34.81164 | -58.59488 | 813 ft | 128 kts | 103° |
| 2026-04-21 01:46 | -34.81353 | -58.58416 | 672 ft | 127 kts | 103° |
| 2026-04-21 01:46 | -34.81542 | -58.57335 | 444 ft | 131 kts | 103° |
| 2026-04-21 01:46 | -34.81745 | -58.56254 | 263 ft | 131 kts | 105° |
| 2026-04-21 01:46 | -34.81936 | -58.55165 | 113 ft | 132 kts | 105° |
| 2026-04-21 01:47 | -34.82112 | -58.54179 | 85 ft | 103 kts | 101° |
| 2026-04-21 01:47 | -34.82221 | -58.53581 | 80 ft | 41 kts | 102° |
| 2026-04-21 01:47 | -34.82259 | -58.53356 | 82 ft | 21 kts | 101° |
| 2026-04-21 01:47 | -34.82290 | -58.53182 | 81 ft | 23 kts | 103° |
| 2026-04-21 01:48 | -34.82330 | -58.52982 | 83 ft | 23 kts | 104° |
| 2026-04-21 01:48 | -34.82274 | -58.52888 | 84 ft | 15 kts | 342° |
| 2026-04-21 01:48 | -34.82179 | -58.52933 | 81 ft | 14 kts | 341° |
| 2026-04-21 01:48 | -34.82084 | -58.52959 | 82 ft | 14 kts | 351° |
| 2026-04-21 01:49 | -34.82025 | -58.53036 | 78 ft | 13 kts | 285° |
| 2026-04-21 01:49 | -34.82002 | -58.53147 | 70 ft | 14 kts | 285° |
| 2026-04-21 01:49 | -34.81978 | -58.53260 | 66 ft | 14 kts | 282° |
| 2026-04-21 01:49 | -34.81957 | -58.53368 | 73 ft | 13 kts | 284° |
| 2026-04-21 01:50 | -34.81936 | -58.53474 | 72 ft | 13 kts | 284° |
| 2026-04-21 01:50 | -34.81916 | -58.53572 | 74 ft | 9 kts | 282° |
| 2026-04-21 01:50 | -34.81915 | -58.53581 | 74 ft | 0 kts | 282° |
| 2026-04-21 01:51 | -34.81915 | -58.53582 | 74 ft | 1 kts | 282° |
| 2026-04-21 01:51 | -34.81903 | -58.53614 | 70 ft | 7 kts | 306° |
| 2026-04-21 01:51 | -34.81864 | -58.53651 | 69 ft | 8 kts | 330° |
| 2026-04-21 01:52 | -34.81814 | -58.53681 | 74 ft | 8 kts | 334° |
| 2026-04-21 01:52 | -34.81680 | -58.53759 | 69 ft | 11 kts | 332° |
| 2026-04-21 01:52 | -34.81661 | -58.53823 | 69 ft | 6 kts | 287° |
| 2026-04-21 01:53 | -34.81632 | -58.53854 | 70 ft | 5 kts | 322° |
| 2026-04-21 01:53 | -34.81602 | -58.53881 | 74 ft | 5 kts | 322° |
| 2026-04-21 01:53 | -34.81573 | -58.53908 | 74 ft | 5 kts | 321° |
| 2026-04-21 01:53 | -34.81549 | -58.53931 | 68 ft | 0 kts | 322° |
| 2026-04-21 01:54 | -34.81548 | -58.53933 | 69 ft | 1 kts | 322° |
| 2026-04-21 01:54 | -34.81546 | -58.53935 | 69 ft | 0 kts | 322° |